Time;durP1;ratioP1;P1;durP2;ratioP2;P2;SDS_P1;SDS_P2;PMS_P1;PMS_P2;Temp;Humidity;BMP_temperature;BMP_pressure;BME280_temperature;BME280_humidity;BME280_pressure;Samples;Min_cycle;Max_cycle;Signal;HPM_P1;HPM_P2
2022/05/10 00:00:26;;;;;;;11.73;5.00;;;15.20;99.90;;;;;;5067957;28;20513;-70
2022/05/10 00:02:55;;;;;;;17.67;5.80;;;15.20;99.90;;;;;;5067674;28;20051;-69
2022/05/10 00:05:32;;;;;;;13.07;4.85;;;15.20;99.90;;;;;;5068313;28;20049;-70
2022/05/10 00:07:59;;;;;;;14.60;5.13;;;15.10;99.90;;;;;;5067833;28;20088;-69
2022/05/10 00:10:25;;;;;;;13.50;5.30;;;15.10;99.90;;;;;;5082723;28;20459;-69
2022/05/10 00:12:51;;;;;;;12.27;5.72;;;15.40;99.90;;;;;;5065908;28;20507;-70
2022/05/10 00:15:17;;;;;;;14.15;5.82;;;15.10;99.90;;;;;;5068216;28;20045;-70
2022/05/10 00:17:43;;;;;;;12.25;5.85;;;15.00;99.90;;;;;;5067708;28;20086;-69
2022/05/10 00:20:17;;;;;;;12.45;5.72;;;15.00;99.90;;;;;;5067767;28;20085;-70
2022/05/10 00:22:44;;;;;;;17.40;6.38;;;14.90;99.90;;;;;;5066910;28;20049;-70
2022/05/10 00:25:13;;;;;;;15.27;5.82;;;14.90;99.90;;;;;;5067758;28;20075;-69
2022/05/10 00:27:38;;;;;;;16.02;5.93;;;14.80;99.90;;;;;;5066860;28;20048;-69
2022/05/10 00:30:05;;;;;;;13.88;5.80;;;14.70;99.90;;;;;;5067496;28;20466;-70
2022/05/10 00:32:35;;;;;;;11.13;5.90;;;14.70;99.90;;;;;;5068435;28;20509;-69
2022/05/10 00:35:01;;;;;;;12.13;6.18;;;14.60;99.90;;;;;;5068134;28;20052;-70
2022/05/10 00:37:28;;;;;;;15.38;6.35;;;14.60;99.90;;;;;;5066772;28;20044;-70
2022/05/10 00:39:54;;;;;;;13.65;6.38;;;14.60;99.90;;;;;;5066497;28;20047;-70
2022/05/10 00:42:27;;;;;;;13.07;6.07;;;15.20;99.90;;;;;;5067161;28;20396;-70
2022/05/10 00:45:08;;;;;;;15.80;6.45;;;14.50;99.90;;;;;;5067350;28;20094;-70
2022/05/10 00:47:59;;;;;;;14.55;5.97;;;14.50;99.90;;;;;;5068283;28;20040;-70
2022/05/10 00:50:32;;;;;;;12.52;6.18;;;14.40;99.90;;;;;;5052125;28;20104;-70
2022/05/10 00:53:04;;;;;;;15.05;6.05;;;14.50;99.90;;;;;;5065999;28;20122;-70
2022/05/10 00:55:44;;;;;;;14.23;6.28;;;14.40;99.90;;;;;;5068025;28;20060;-70
2022/05/10 00:58:22;;;;;;;12.35;5.50;;;14.50;99.90;;;;;;5066109;28;20111;-70
2022/05/10 01:00:48;;;;;;;16.08;5.90;;;14.50;99.90;;;;;;5068129;28;20485;-69
2022/05/10 01:03:32;;;;;;;15.00;6.15;;;14.40;99.90;;;;;;5066744;28;20044;-70
2022/05/10 01:06:20;;;;;;;18.45;6.13;;;14.50;99.90;;;;;;5054322;28;20048;-70
2022/05/10 01:09:06;;;;;;;11.73;5.78;;;14.50;99.90;;;;;;5067756;28;20472;-70
2022/05/10 01:11:53;;;;;;;15.48;6.25;;;14.40;99.90;;;;;;5066710;28;20145;-70
2022/05/10 01:14:39;;;;;;;16.35;5.85;;;14.50;99.90;;;;;;5068364;28;20051;-70
2022/05/10 01:17:05;;;;;;;13.52;5.93;;;14.50;99.90;;;;;;5067730;28;20049;-71
2022/05/10 01:19:31;;;;;;;12.52;5.88;;;15.10;99.90;;;;;;5065999;28;20040;-71
2022/05/10 01:22:21;;;;;;;12.43;5.53;;;14.40;99.90;;;;;;5068099;28;20093;-68
2022/05/10 01:25:10;;;;;;;15.30;5.38;;;14.50;99.90;;;;;;5067060;28;20087;-69
2022/05/10 01:27:50;;;;;;;15.30;6.38;;;14.50;99.90;;;;;;5065440;28;20435;-69
2022/05/10 01:30:25;;;;;;;14.55;5.88;;;14.50;99.90;;;;;;5066234;28;20421;-69
2022/05/10 01:36:00;;;;;;;12.85;5.40;;;14.40;99.90;;;;;;5072899;28;20091;-70
2022/05/10 01:38:36;;;;;;;13.45;5.63;;;14.40;99.90;;;;;;5069641;28;20094;-70
2022/05/10 01:41:29;;;;;;;16.75;5.55;;;14.40;99.90;;;;;;5061102;28;20126;-70
2022/05/10 01:44:06;;;;;;;15.50;5.50;;;14.40;99.90;;;;;;5069723;28;20048;-70
2022/05/10 01:46:32;;;;;;;11.95;5.50;;;14.40;99.90;;;;;;5073422;28;20201;-71
2022/05/10 01:49:22;;;;;;;18.40;5.85;;;14.40;99.90;;;;;;5070142;28;20055;-70
2022/05/10 01:51:54;;;;;;;13.13;5.60;;;14.40;99.90;;;;;;5062572;28;20135;-70
2022/05/10 01:54:38;;;;;;;15.13;5.10;;;14.40;99.90;;;;;;5068879;28;20087;-70
2022/05/10 01:57:07;;;;;;;14.85;5.72;;;14.60;99.90;;;;;;5069624;28;20145;-70
2022/05/10 01:59:32;;;;;;;14.07;5.85;;;14.40;99.90;;;;;;5050532;28;20075;-70
2022/05/10 02:01:59;;;;;;;14.40;5.90;;;14.50;99.90;;;;;;5066266;28;20048;-70
2022/05/10 02:04:33;;;;;;;10.73;5.45;;;14.50;99.90;;;;;;5070076;28;20131;-70
2022/05/10 02:07:21;;;;;;;17.40;5.80;;;14.50;99.90;;;;;;5071422;28;20051;-70
2022/05/10 02:09:54;;;;;;;16.15;5.55;;;14.60;99.90;;;;;;5070036;28;20041;-69
2022/05/10 02:12:37;;;;;;;12.00;5.50;;;15.30;99.90;;;;;;5052089;28;20048;-69
2022/05/10 02:15:06;;;;;;;13.25;5.82;;;14.60;99.90;;;;;;5073095;28;20040;-69
2022/05/10 02:18:08;;;;;;;16.33;6.05;;;14.60;99.90;;;;;;5069590;28;20166;-70
2022/05/10 02:20:56;;;;;;;11.63;5.38;;;14.60;99.90;;;;;;5070405;28;20044;-69
2022/05/10 02:23:32;;;;;;;14.43;5.57;;;14.70;99.90;;;;;;5068379;28;20064;-70
2022/05/10 02:26:03;;;;;;;13.82;5.85;;;14.80;99.90;;;;;;5070234;28;20481;-70
2022/05/10 02:28:41;;;;;;;13.93;5.80;;;14.80;99.90;;;;;;5069702;28;20047;-70
2022/05/10 02:33:06;;;;;;;13.70;5.72;;;14.90;99.90;;;;;;5057286;28;20048;-70
2022/05/10 02:34:26;;;;;;;10.20;5.80;;;14.80;99.90;;;;;;5069613;28;20060;-69
2022/05/10 02:36:51;;;;;;;13.05;5.60;;;14.80;99.90;;;;;;5068302;28;20143;-70
2022/05/10 02:39:17;;;;;;;14.10;6.18;;;14.80;99.90;;;;;;5069978;28;20159;-70
2022/05/10 02:41:43;;;;;;;16.88;5.72;;;14.80;99.90;;;;;;5068153;28;20037;-70
2022/05/10 02:44:08;;;;;;;11.13;5.50;;;14.80;99.90;;;;;;5068864;28;20064;-70
2022/05/10 02:46:34;;;;;;;9.45;5.40;;;14.70;99.90;;;;;;5069985;28;20366;-70
2022/05/10 02:49:00;;;;;;;14.52;6.22;;;14.70;99.90;;;;;;5052527;28;20041;-70
2022/05/10 02:51:26;;;;;;;14.73;6.03;;;14.70;99.90;;;;;;5067219;28;20072;-70
2022/05/10 02:53:51;;;;;;;15.20;6.35;;;14.70;99.90;;;;;;5069541;28;20052;-70
2022/05/10 02:56:23;;;;;;;13.07;6.32;;;14.70;99.90;;;;;;5068834;28;20052;-70
2022/05/10 02:58:51;;;;;;;13.32;6.72;;;14.60;99.90;;;;;;5069650;28;20445;-69
2022/05/10 03:01:46;;;;;;;10.63;5.53;;;14.60;99.90;;;;;;5067877;28;20251;-70
2022/05/10 03:04:12;;;;;;;15.38;6.63;;;14.70;99.90;;;;;;5067499;28;20378;-70
2022/05/10 03:06:40;;;;;;;13.38;6.13;;;14.60;99.90;;;;;;5068823;28;20040;-70
2022/05/10 03:09:06;;;;;;;15.75;6.40;;;14.60;99.90;;;;;;5069578;28;20044;-70
2022/05/10 03:11:32;;;;;;;13.55;6.32;;;14.60;99.90;;;;;;5067506;28;20094;-69
2022/05/10 03:13:59;;;;;;;15.50;6.55;;;14.60;99.90;;;;;;5069664;28;20091;-70
2022/05/10 03:16:25;;;;;;;12.15;6.40;;;14.60;99.90;;;;;;5069121;28;20041;-70
2022/05/10 03:18:52;;;;;;;14.55;5.90;;;14.60;99.90;;;;;;5064178;28;20041;-70
2022/05/10 03:21:18;;;;;;;13.23;6.55;;;14.60;99.90;;;;;;5065096;28;20193;-70
2022/05/10 03:23:43;;;;;;;11.82;6.07;;;14.60;99.90;;;;;;5068613;28;20047;-70
2022/05/10 03:26:11;;;;;;;15.23;6.55;;;14.60;99.90;;;;;;5068669;28;20535;-69
2022/05/10 03:28:37;;;;;;;13.93;6.65;;;14.60;99.90;;;;;;5071329;28;20032;-69
2022/05/10 03:31:05;;;;;;;14.00;6.30;;;14.60;99.90;;;;;;5071729;28;20037;-70
2022/05/10 03:33:31;;;;;;;13.77;6.20;;;14.60;99.90;;;;;;5070937;28;20048;-70
2022/05/10 03:35:56;;;;;;;13.65;6.50;;;14.60;99.90;;;;;;5069900;28;20041;-69
2022/05/10 03:38:22;;;;;;;14.30;6.22;;;14.60;99.90;;;;;;5068221;28;20931;-69
2022/05/10 03:40:47;;;;;;;16.70;7.10;;;14.60;99.90;;;;;;5067175;28;20037;-70
2022/05/10 03:43:13;;;;;;;14.82;6.35;;;14.60;99.90;;;;;;5066500;28;20052;-70
2022/05/10 03:45:39;;;;;;;11.95;6.63;;;14.60;99.90;;;;;;5068268;28;20040;-70
2022/05/10 03:48:05;;;;;;;14.75;6.75;;;14.60;99.90;;;;;;5067769;28;20524;-70
2022/05/10 03:50:31;;;;;;;14.88;7.38;;;14.60;99.90;;;;;;5068294;28;20036;-70
2022/05/10 03:52:56;;;;;;;17.77;7.68;;;14.70;99.90;;;;;;5067426;28;20673;-70
2022/05/10 03:55:24;;;;;;;17.52;7.57;;;14.60;99.90;;;;;;5055002;28;20578;-70
2022/05/10 03:57:52;;;;;;;13.88;7.15;;;15.50;99.90;;;;;;5065433;28;20053;-69
2022/05/10 04:00:21;;;;;;;14.75;6.97;;;14.80;99.90;;;;;;5068896;28;20068;-70
2022/05/10 04:02:46;;;;;;;14.57;7.03;;;14.80;99.90;;;;;;5068108;28;20041;-70
2022/05/10 04:05:14;;;;;;;14.25;7.05;;;15.20;99.90;;;;;;5066337;28;20098;-70
2022/05/10 04:07:40;;;;;;;13.93;7.18;;;14.80;99.90;;;;;;5047433;28;20675;-70
2022/05/10 04:10:08;;;;;;;13.20;6.90;;;14.80;99.90;;;;;;5047777;28;20453;-70
2022/05/10 04:12:35;;;;;;;19.58;8.00;;;14.90;99.90;;;;;;5066141;28;20097;-71
2022/05/10 04:15:01;;;;;;;13.93;7.25;;;14.90;99.90;;;;;;5068726;28;20089;-70
2022/05/10 04:17:26;;;;;;;15.13;7.10;;;15.00;99.90;;;;;;5068569;28;20492;-70
2022/05/10 04:19:52;;;;;;;14.90;7.57;;;15.00;99.90;;;;;;5061519;28;20492;-70
2022/05/10 04:22:18;;;;;;;14.27;6.93;;;15.10;99.90;;;;;;5067021;28;20037;-71
2022/05/10 04:24:43;;;;;;;14.27;7.80;;;15.10;99.90;;;;;;5068143;28;20199;-70
2022/05/10 04:27:09;;;;;;;14.60;7.55;;;15.10;99.90;;;;;;5067255;28;20044;-70
2022/05/10 04:29:35;;;;;;;14.30;7.25;;;15.20;99.90;;;;;;5067262;28;20075;-70
2022/05/10 04:32:00;;;;;;;15.30;7.78;;;15.10;99.90;;;;;;5067039;28;20037;-70
2022/05/10 04:34:26;;;;;;;16.75;7.60;;;15.20;99.90;;;;;;5066859;28;20131;-71
2022/05/10 04:36:51;;;;;;;16.10;7.35;;;15.20;99.90;;;;;;5068985;28;20048;-70
2022/05/10 04:39:17;;;;;;;14.68;7.35;;;15.20;99.90;;;;;;5068172;28;20510;-71
2022/05/10 04:41:48;;;;;;;13.90;7.95;;;15.10;99.90;;;;;;5066001;28;20045;-70
2022/05/10 04:44:13;;;;;;;12.90;7.55;;;15.20;99.90;;;;;;5065987;28;20109;-71
2022/05/10 04:46:40;;;;;;;16.40;7.22;;;15.20;99.90;;;;;;5068571;28;20116;-70
2022/05/10 04:49:08;;;;;;;15.60;7.68;;;15.20;99.90;;;;;;5069568;28;20048;-69
2022/05/10 04:51:35;;;;;;;14.48;7.32;;;15.20;99.90;;;;;;5065132;28;20040;-70
2022/05/10 04:54:01;;;;;;;14.25;7.53;;;15.20;99.90;;;;;;5067626;28;20055;-70
2022/05/10 04:56:27;;;;;;;20.00;7.78;;;15.20;99.90;;;;;;5066334;28;20054;-70
2022/05/10 04:58:54;;;;;;;16.92;7.88;;;15.20;99.90;;;;;;5049875;28;20052;-70
2022/05/10 05:01:25;;;;;;;15.13;7.90;;;15.20;99.90;;;;;;5066961;28;20051;-70
2022/05/10 05:03:51;;;;;;;15.43;7.65;;;15.20;99.90;;;;;;5066492;28;20491;-70
2022/05/10 05:06:17;;;;;;;15.80;8.00;;;15.20;99.90;;;;;;5065141;28;20072;-70
2022/05/10 05:08:44;;;;;;;15.00;7.63;;;15.30;99.90;;;;;;5067644;28;20040;-69
2022/05/10 05:11:10;;;;;;;18.52;7.93;;;16.30;99.90;;;;;;5067022;28;20049;-69
2022/05/10 05:13:35;;;;;;;16.95;7.85;;;15.70;99.90;;;;;;5066773;28;20132;-71
2022/05/10 05:16:01;;;;;;;19.45;8.05;;;15.90;99.90;;;;;;5066783;28;20044;-70
2022/05/10 05:18:27;;;;;;;16.13;8.52;;;15.50;99.90;;;;;;5065961;28;20376;-70
2022/05/10 05:20:53;;;;;;;18.30;8.35;;;15.70;99.90;;;;;;5066691;28;20075;-70
2022/05/10 05:23:21;;;;;;;19.45;8.15;;;15.50;99.90;;;;;;5066880;28;20048;-69
2022/05/10 05:25:47;;;;;;;25.08;8.98;;;15.80;99.90;;;;;;5066762;28;20033;-70
2022/05/10 05:28:13;;;;;;;21.80;8.98;;;16.00;99.90;;;;;;5066738;28;20090;-71
2022/05/10 05:30:40;;;;;;;17.10;7.95;;;15.60;99.90;;;;;;5051051;28;20075;-70
2022/05/10 05:33:06;;;;;;;20.77;8.27;;;15.70;99.90;;;;;;5045020;28;20060;-71
2022/05/10 05:35:32;;;;;;;16.27;8.35;;;15.70;99.90;;;;;;5052759;28;20041;-71
2022/05/10 05:37:58;;;;;;;16.38;8.35;;;15.80;99.90;;;;;;5066698;28;20055;-71
2022/05/10 05:40:25;;;;;;;17.15;7.78;;;15.90;99.90;;;;;;5066709;28;20369;-71
2022/05/10 05:42:52;;;;;;;15.15;7.88;;;15.90;99.90;;;;;;5065765;28;20048;-70
2022/05/10 05:45:20;;;;;;;12.93;7.85;;;15.90;99.90;;;;;;5066845;28;20040;-71
2022/05/10 05:47:46;;;;;;;14.55;7.55;;;16.00;99.90;;;;;;5051814;28;20068;-69
2022/05/10 05:50:14;;;;;;;14.88;7.95;;;16.00;99.90;;;;;;5063010;28;20067;-71
2022/05/10 05:52:41;;;;;;;14.65;8.18;;;16.10;99.90;;;;;;5065079;28;20346;-71
2022/05/10 05:55:08;;;;;;;14.25;8.23;;;16.10;99.90;;;;;;5066158;28;20434;-70
2022/05/10 05:57:33;;;;;;;14.80;8.13;;;16.10;99.90;;;;;;5067690;28;20040;-71
2022/05/10 05:59:59;;;;;;;16.13;7.75;;;16.20;99.90;;;;;;5065950;28;20048;-70
2022/05/10 06:02:26;;;;;;;15.85;7.93;;;16.20;99.90;;;;;;5065741;28;20372;-70
2022/05/10 06:04:53;;;;;;;15.32;8.70;;;16.20;99.90;;;;;;5065116;28;20040;-71
2022/05/10 06:07:20;;;;;;;13.20;8.95;;;16.30;99.90;;;;;;5066833;28;20388;-71
2022/05/10 06:09:47;;;;;;;15.85;8.13;;;16.30;99.90;;;;;;5068567;28;20041;-70
2022/05/10 06:12:16;;;;;;;18.88;8.50;;;16.40;99.90;;;;;;5065827;28;20059;-70
2022/05/10 06:14:42;;;;;;;15.60;8.07;;;16.50;99.90;;;;;;5065138;28;20051;-71
2022/05/10 06:17:09;;;;;;;17.92;8.05;;;16.60;99.90;;;;;;5065566;28;20033;-71
2022/05/10 06:19:37;;;;;;;15.32;8.00;;;16.70;99.90;;;;;;5069195;28;20461;-71
2022/05/10 06:22:05;;;;;;;12.85;7.72;;;16.80;99.90;;;;;;5069100;28;20254;-70
2022/05/10 06:24:30;;;;;;;14.13;7.88;;;16.90;99.90;;;;;;5068663;28;20221;-69
2022/05/10 06:26:56;;;;;;;15.68;8.20;;;17.00;99.90;;;;;;5069368;28;20200;-70
2022/05/10 06:29:21;;;;;;;13.25;8.05;;;17.20;99.90;;;;;;5061183;28;20400;-71
2022/05/10 06:31:48;;;;;;;19.20;8.68;;;17.30;99.90;;;;;;5049930;28;20529;-71
2022/05/10 06:34:15;;;;;;;13.20;7.22;;;17.40;99.90;;;;;;5050614;28;20067;-71
2022/05/10 06:36:41;;;;;;;11.20;7.50;;;17.50;99.90;;;;;;5069145;28;20049;-71
2022/05/10 06:39:08;;;;;;;15.02;7.88;;;17.70;99.90;;;;;;5069236;28;20044;-71
2022/05/10 06:41:34;;;;;;;12.85;7.60;;;17.80;99.90;;;;;;5069683;28;20112;-71
2022/05/10 06:44:01;;;;;;;13.25;7.25;;;17.90;99.90;;;;;;5069402;28;20139;-71
2022/05/10 06:46:30;;;;;;;11.07;7.50;;;18.10;99.90;;;;;;5067347;28;20045;-71
2022/05/10 06:48:56;;;;;;;15.52;7.30;;;18.30;99.90;;;;;;5051505;28;20124;-70
2022/05/10 06:51:23;;;;;;;11.35;6.78;;;18.40;99.90;;;;;;5068555;28;21034;-71
2022/05/10 06:53:49;;;;;;;12.15;6.68;;;18.60;99.90;;;;;;5051620;28;20167;-71
2022/05/10 06:56:16;;;;;;;20.23;7.53;;;18.70;99.90;;;;;;5048431;28;20072;-71
2022/05/10 06:58:43;;;;;;;14.93;6.13;;;18.80;99.90;;;;;;5068860;28;20052;-70
2022/05/10 07:01:13;;;;;;;12.20;6.50;;;19.10;99.90;;;;;;5068495;28;20386;-72
2022/05/10 07:03:47;;;;;;;15.00;6.63;;;19.00;99.90;;;;;;5069710;28;20041;-71
2022/05/10 07:06:16;;;;;;;10.52;6.10;;;19.10;99.90;;;;;;5070572;28;20484;-71
2022/05/10 07:08:41;;;;;;;12.82;6.18;;;19.20;99.90;;;;;;5073413;28;20080;-71
2022/05/10 07:11:07;;;;;;;10.88;5.68;;;19.40;99.90;;;;;;5066548;28;20076;-71
2022/05/10 07:13:33;;;;;;;10.63;5.93;;;19.50;99.90;;;;;;5068454;28;20029;-71
2022/05/10 07:16:00;;;;;;;12.90;6.20;;;19.50;99.90;;;;;;5069116;28;20044;-71
2022/05/10 07:18:26;;;;;;;13.55;5.78;;;19.60;99.90;;;;;;5064214;28;20029;-71
2022/05/10 07:20:52;;;;;;;15.07;6.28;;;19.70;99.90;;;;;;5050291;28;20053;-69
2022/05/10 07:23:30;;;;;;;11.85;5.72;;;19.80;99.90;;;;;;5045731;28;20081;-68
2022/05/10 07:25:57;;;;;;;12.35;5.57;;;19.80;99.90;;;;;;5059571;28;20032;-69
2022/05/10 07:28:23;;;;;;;13.32;5.78;;;19.80;99.90;;;;;;5068114;28;20053;-69
2022/05/10 07:30:49;;;;;;;11.13;5.60;;;20.00;99.90;;;;;;5069126;28;20041;-68
2022/05/10 07:33:19;;;;;;;10.85;5.32;;;20.20;99.90;;;;;;5069547;28;20037;-68
2022/05/10 07:38:29;;;;;;;13.65;5.97;;;20.30;99.90;;;;;;5066854;28;20044;-68
2022/05/10 07:40:55;;;;;;;12.50;5.30;;;20.50;99.70;;;;;;5063572;28;20109;-66
2022/05/10 07:43:21;;;;;;;11.43;5.75;;;20.60;99.60;;;;;;5065998;28;20044;-66
2022/05/10 07:45:49;;;;;;;11.23;5.55;;;20.90;99.60;;;;;;5066664;28;20044;-69
2022/05/10 07:48:15;;;;;;;9.35;5.28;;;20.90;99.60;;;;;;5068361;28;20049;-67
2022/05/10 07:50:42;;;;;;;11.07;4.90;;;21.40;99.40;;;;;;5068031;28;20044;-67
2022/05/10 07:53:12;;;;;;;11.30;5.40;;;21.10;98.90;;;;;;5067008;28;20053;-67
2022/05/10 07:55:38;;;;;;;14.38;5.22;;;21.40;98.60;;;;;;5068505;28;20056;-67
2022/05/10 07:58:05;;;;;;;13.02;5.18;;;21.20;98.40;;;;;;5057694;28;20041;-67
2022/05/10 08:00:32;;;;;;;9.82;4.75;;;21.70;98.60;;;;;;5047333;28;20053;-66
2022/05/10 08:02:58;;;;;;;14.70;4.68;;;21.40;98.20;;;;;;5048756;28;20037;-67
2022/05/10 08:05:25;;;;;;;9.00;4.63;;;21.40;98.20;;;;;;5046954;28;20041;-67
2022/05/10 08:07:51;;;;;;;9.60;4.60;;;21.70;98.20;;;;;;5047509;28;20076;-66
2022/05/10 08:10:18;;;;;;;7.72;4.32;;;21.60;97.90;;;;;;5030489;28;20478;-67
2022/05/10 08:12:44;;;;;;;9.48;4.40;;;21.70;97.80;;;;;;5044918;28;20049;-68
2022/05/10 08:15:10;;;;;;;10.65;4.40;;;21.80;97.70;;;;;;5048304;28;20052;-67
2022/05/10 08:17:36;;;;;;;12.63;4.30;;;21.90;97.50;;;;;;5063421;28;20037;-67
2022/05/10 08:20:03;;;;;;;13.95;4.28;;;22.10;96.90;;;;;;5047316;28;20072;-67
2022/05/10 08:22:31;;;;;;;9.02;4.10;;;22.00;96.70;;;;;;5048049;28;20409;-67
2022/05/10 08:24:56;;;;;;;10.38;4.45;;;22.00;96.60;;;;;;5047452;28;20457;-67
2022/05/10 08:27:22;;;;;;;8.38;4.05;;;22.10;96.60;;;;;;5046913;28;20045;-67
2022/05/10 08:29:47;;;;;;;11.80;4.18;;;22.00;96.60;;;;;;5058719;28;20043;-67
2022/05/10 08:32:13;;;;;;;11.63;4.18;;;22.00;96.70;;;;;;5066854;28;20040;-67
2022/05/10 08:34:39;;;;;;;13.43;3.95;;;21.90;97.10;;;;;;5065353;28;20505;-67
2022/05/10 08:37:05;;;;;;;9.00;3.85;;;21.90;97.00;;;;;;5067172;28;20041;-68
2022/05/10 08:39:31;;;;;;;11.82;3.78;;;22.00;97.30;;;;;;5066866;28;20059;-67
2022/05/10 08:41:59;;;;;;;10.55;3.67;;;22.00;97.20;;;;;;5066591;28;20102;-66
2022/05/10 08:44:28;;;;;;;10.70;3.70;;;22.10;96.90;;;;;;5066651;28;20048;-67
2022/05/10 08:47:03;;;;;;;12.05;4.10;;;22.20;96.90;;;;;;5063131;28;20090;-68
2022/05/10 08:49:46;;;;;;;;;;;22.30;96.80;;;;;;5046804;28;20339;-67
2022/05/10 08:52:14;;;;;;;10.43;3.90;;;22.40;96.60;;;;;;5046924;28;19924;-68
2022/05/10 08:54:41;;;;;;;8.35;3.70;;;22.60;96.70;;;;;;5046151;28;20048;-68
2022/05/10 08:57:33;;;;;;;6.40;3.75;;;22.50;96.70;;;;;;5046993;28;20045;-68
2022/05/10 09:00:05;;;;;;;10.85;3.85;;;22.50;96.20;;;;;;5048599;28;20076;-68
2022/05/10 09:02:41;;;;;;;14.00;3.72;;;22.40;96.40;;;;;;5046120;28;20041;-67
2022/05/10 09:05:21;;;;;;;;;;;22.60;96.40;;;;;;5046286;28;20393;-66
2022/05/10 09:08:11;;;;;;;8.27;3.75;;;22.50;96.20;;;;;;5045172;28;19927;-67
2022/05/10 09:10:44;;;;;;;9.27;3.45;;;22.50;96.20;;;;;;5047234;28;20041;-66
2022/05/10 09:13:16;;;;;;;6.55;3.10;;;22.50;96.20;;;;;;5045980;28;20045;-67
2022/05/10 09:15:55;;;;;;;9.65;3.50;;;22.60;96.10;;;;;;5047314;28;20056;-67
2022/05/10 09:18:37;;;;;;;11.60;3.40;;;22.70;95.90;;;;;;5047117;28;20049;-67
2022/05/10 09:21:19;;;;;;;8.57;3.22;;;22.60;95.80;;;;;;5046651;28;20091;-67
2022/05/10 09:24:22;;;;;;;7.35;3.35;;;22.70;95.70;;;;;;5013795;28;20041;-67
2022/05/10 09:26:55;;;;;;;13.57;3.33;;;22.70;95.60;;;;;;5048195;28;20450;-67
2022/05/10 09:29:27;;;;;;;7.85;3.30;;;23.10;95.50;;;;;;5046405;28;20347;-67
2022/05/10 09:34:46;;;;;;;8.90;3.25;;;23.00;95.50;;;;;;5046398;28;20481;-68
2022/05/10 09:37:19;;;;;;;12.82;3.70;;;23.50;95.10;;;;;;5056894;28;20041;-67
2022/05/10 09:39:50;;;;;;;13.63;4.43;;;23.60;94.40;;;;;;5066160;28;20044;-66
2022/05/10 09:42:30;;;;;;;7.15;3.33;;;23.90;94.10;;;;;;5064121;28;20052;-68
2022/05/10 09:45:10;;;;;;;7.78;3.70;;;23.70;93.90;;;;;;5066977;28;20048;-69
2022/05/10 09:47:36;;;;;;;10.63;3.50;;;23.70;94.00;;;;;;5068574;28;20132;-70
2022/05/10 09:50:15;;;;;;;14.15;3.88;;;23.80;94.10;;;;;;5066728;28;20056;-69
2022/05/10 09:52:41;;;;;;;10.75;3.75;;;24.10;93.90;;;;;;5067694;28;20062;-70
2022/05/10 09:55:12;;;;;;;9.25;3.70;;;24.40;93.30;;;;;;5071073;28;20090;-70
2022/05/10 09:57:40;;;;;;;10.15;3.80;;;24.90;92.70;;;;;;5063874;28;20037;-69
2022/05/10 10:00:13;;;;;;;12.73;3.75;;;25.10;92.20;;;;;;5051405;28;20045;-69
2022/05/10 10:02:39;;;;;;;15.18;4.30;;;24.90;92.10;;;;;;5053280;28;20032;-68
2022/05/10 10:05:29;;;;;;;19.70;4.32;;;24.60;92.20;;;;;;5070107;28;20093;-68
2022/05/10 10:07:57;;;;;;;9.45;4.10;;;24.20;92.60;;;;;;5069846;28;20473;-69
2022/05/10 10:10:30;;;;;;;10.80;3.65;;;23.90;92.90;;;;;;5066110;28;20110;-68
2022/05/10 10:12:56;;;;;;;14.20;4.18;;;23.70;93.50;;;;;;5059894;28;20048;-69
2022/05/10 10:15:25;;;;;;;10.02;4.07;;;23.60;93.50;;;;;;5069145;28;20112;-67
2022/05/10 10:17:58;;;;;;;8.50;3.80;;;23.50;93.90;;;;;;5068490;28;20347;-68
2022/05/10 10:20:39;;;;;;;11.15;4.40;;;23.50;94.10;;;;;;5049321;28;20036;-68
2022/05/10 10:23:25;;;;;;;13.68;4.68;;;23.90;94.20;;;;;;5046337;28;20115;-77
2022/05/10 10:25:55;;;;;;;10.68;4.90;;;23.80;93.70;;;;;;5045109;28;20138;-77
2022/05/10 10:28:39;;;;;;;12.70;5.00;;;24.00;93.40;;;;;;5027397;28;20103;-77
2022/05/10 10:31:17;;;;;;;13.38;4.80;;;24.20;93.30;;;;;;5061993;28;20075;-76
2022/05/10 10:33:58;;;;;;;9.27;4.60;;;24.90;92.90;;;;;;5061207;28;20047;-76
2022/05/10 10:36:29;;;;;;;11.63;4.80;;;25.50;92.40;;;;;;5061704;28;20055;-76
2022/05/10 10:39:23;;;;;;;11.45;4.80;;;25.40;92.10;;;;;;5066808;28;20054;-76
2022/05/10 10:41:55;;;;;;;13.52;4.97;;;25.40;92.20;;;;;;5066368;28;20109;-75
2022/05/10 10:44:33;;;;;;;17.25;5.40;;;25.30;92.20;;;;;;5063047;28;20471;-75
2022/05/10 10:47:18;;;;;;;11.00;5.40;;;25.40;92.40;;;;;;5062633;28;20496;-77
2022/05/10 10:50:18;;;;;;;8.35;4.80;;;25.30;92.30;;;;;;5070123;28;20051;-77
2022/05/10 10:52:44;;;;;;;11.00;5.25;;;25.20;92.20;;;;;;5064175;28;20064;-76
2022/05/10 10:55:10;;;;;;;10.32;5.50;;;24.90;92.30;;;;;;5063780;28;20098;-76
2022/05/10 10:58:03;;;;;;;20.48;6.13;;;24.70;92.50;;;;;;5062839;28;20067;-76
2022/05/10 11:00:42;;;;;;;14.40;5.88;;;24.40;92.80;;;;;;5062894;28;20434;-76
2022/05/10 11:03:31;;;;;;;14.65;5.20;;;24.20;93.20;;;;;;5062909;28;20095;-77
2022/05/10 11:06:18;;;;;;;10.70;5.28;;;24.10;93.50;;;;;;5068266;28;20041;-76
2022/05/10 11:08:59;;;;;;;14.40;5.75;;;23.90;93.80;;;;;;5065310;28;20170;-75
2022/05/10 11:11:57;;;;;;;12.38;5.28;;;24.00;94.40;;;;;;5063305;28;20052;-76
2022/05/10 11:15:05;;;;;;;12.82;4.88;;;23.50;94.80;;;;;;5048118;28;20555;-74
2022/05/10 11:17:53;;;;;;;14.07;4.93;;;23.40;95.00;;;;;;5054687;28;20071;-74
2022/05/10 11:20:37;;;;;;;10.23;4.45;;;23.40;95.20;;;;;;5064545;28;20053;-74
2022/05/10 11:23:08;;;;;;;10.10;3.88;;;23.30;94.80;;;;;;5063016;28;20074;-74
2022/05/10 11:26:04;;;;;;;10.98;3.50;;;23.30;94.60;;;;;;5047436;28;20063;-74
2022/05/10 11:29:19;;;;;;;9.05;3.22;;;23.30;93.70;;;;;;5065908;28;20111;-73
2022/05/10 11:32:09;;;;;;;12.43;3.38;;;23.50;93.10;;;;;;5032521;28;20065;-74
2022/05/10 11:35:02;;;;;;;7.47;3.05;;;23.90;92.40;;;;;;5062440;28;20040;-68
2022/05/10 11:37:40;;;;;;;10.75;3.47;;;24.10;92.50;;;;;;5080747;28;20050;-68
2022/05/10 11:40:06;;;;;;;9.27;3.50;;;24.30;92.10;;;;;;5083832;28;20048;-69
2022/05/10 11:42:57;;;;;;;6.68;3.60;;;24.30;91.80;;;;;;5072177;28;20037;-69
2022/05/10 11:45:48;;;;;;;11.13;3.58;;;24.40;91.70;;;;;;5033703;28;20117;-69
2022/05/10 11:49:02;;;;;;;10.20;3.72;;;24.40;91.70;;;;;;5064739;28;20463;-69
2022/05/10 11:51:48;;;;;;;13.80;4.15;;;24.60;91.80;;;;;;5057029;28;20478;-68
2022/05/10 11:54:25;;;;;;;11.40;4.03;;;24.50;92.10;;;;;;5066889;28;20075;-69
2022/05/10 11:56:53;;;;;;;13.05;5.60;;;24.90;92.50;;;;;;5066181;28;20438;-69
2022/05/10 11:59:28;;;;;;;10.25;4.80;;;24.10;92.50;;;;;;5062591;28;20489;-69
2022/05/10 12:01:56;;;;;;;11.45;4.80;;;24.20;92.70;;;;;;5066523;28;20166;-67
2022/05/10 12:04:32;;;;;;;10.43;4.60;;;24.40;92.50;;;;;;5068295;28;20395;-70
2022/05/10 12:07:20;;;;;;;12.45;4.93;;;24.70;92.00;;;;;;5066315;28;20037;-69
2022/05/10 12:09:51;;;;;;;10.35;5.32;;;25.50;91.90;;;;;;5068113;28;20041;-68
2022/05/10 12:12:46;;;;;;;20.95;5.40;;;25.70;91.30;;;;;;5065940;28;20087;-69
2022/05/10 12:21:25;;;;;;;12.60;6.15;;;25.40;91.90;;;;;;5058015;28;20118;-69
2022/05/10 12:24:11;;;;;;;10.63;5.88;;;25.30;92.50;;;;;;5067162;28;20056;-69
2022/05/10 12:26:54;;;;;;;16.65;6.38;;;25.10;92.70;;;;;;5055354;28;20052;-69
2022/05/10 12:29:37;;;;;;;12.57;6.10;;;25.00;92.70;;;;;;5059280;28;20094;-69
2022/05/10 12:32:21;;;;;;;10.07;5.30;;;25.10;92.90;;;;;;5069722;28;20040;-68
2022/05/10 12:34:49;;;;;;;10.15;4.85;;;25.10;92.90;;;;;;5047469;28;20045;-69
2022/05/10 12:37:26;;;;;;;10.32;4.90;;;25.10;92.70;;;;;;5054330;28;20047;-69
2022/05/10 12:40:33;;;;;;;8.05;4.45;;;25.10;92.80;;;;;;5062989;28;20234;-68
2022/05/10 12:43:19;;;;;;;8.50;4.40;;;25.00;92.80;;;;;;5066385;28;20507;-69
2022/05/10 12:45:55;;;;;;;12.40;4.70;;;25.00;93.00;;;;;;5065801;28;20060;-69
2022/05/10 12:48:48;;;;;;;10.30;4.40;;;24.80;92.80;;;;;;5066309;28;20052;-69
2022/05/10 12:51:29;;;;;;;13.05;4.60;;;24.60;93.00;;;;;;5047435;28;20557;-69
2022/05/10 12:54:11;;;;;;;11.75;4.15;;;24.50;92.80;;;;;;5047259;28;20044;-70
2022/05/10 12:56:45;;;;;;;9.77;3.63;;;24.30;92.90;;;;;;5055985;28;20101;-70
2022/05/10 12:59:17;;;;;;;9.45;2.90;;;24.10;92.40;;;;;;5066828;28;20082;-69
2022/05/10 13:01:44;;;;;;;6.90;2.97;;;24.10;92.40;;;;;;5065322;28;20048;-70
2022/05/10 13:04:20;;;;;;;14.25;3.08;;;23.90;91.80;;;;;;5069716;28;20072;-68
2022/05/10 13:06:58;;;;;;;7.47;2.40;;;23.80;91.30;;;;;;5068780;28;20152;-69
2022/05/10 13:09:38;;;;;;;10.00;2.85;;;23.80;90.60;;;;;;5065270;28;20422;-69
2022/05/10 13:12:18;;;;;;;9.35;3.10;;;23.80;90.70;;;;;;5064008;28;20087;-69
2022/05/10 13:14:53;;;;;;;13.02;2.90;;;23.80;90.10;;;;;;5043489;28;20433;-72
2022/05/10 13:17:24;;;;;;;;;;;23.80;89.80;;;;;;5043996;28;20097;-72
2022/05/10 13:19:50;;;;;;;6.18;2.30;;;23.70;88.70;;;;;;5043885;28;20230;-71